createdAt,value
2023-02-27T00:00:53.545Z,-3.20
2023-02-27T00:01:53.548Z,-3.18
2023-02-27T00:02:53.717Z,-3.18
2023-02-27T00:03:53.592Z,-3.21
2023-02-27T00:04:53.516Z,-3.21
2023-02-27T00:05:53.528Z,-3.20
2023-02-27T00:06:53.532Z,-3.20
2023-02-27T00:07:53.500Z,-3.16
2023-02-27T00:08:53.583Z,-3.15
2023-02-27T00:09:53.494Z,-3.15
2023-02-27T00:10:53.514Z,-3.16
2023-02-27T00:11:53.443Z,-3.16
2023-02-27T00:12:53.434Z,-3.18
2023-02-27T00:13:53.428Z,-3.16
2023-02-27T00:14:53.459Z,-3.16
2023-02-27T00:15:53.510Z,-3.15
2023-02-27T00:16:53.393Z,-3.15
2023-02-27T00:17:53.397Z,-3.16
2023-02-27T00:18:53.369Z,-3.18
2023-02-27T00:19:53.357Z,-3.16
2023-02-27T00:20:53.381Z,-3.16
2023-02-27T00:21:53.403Z,-3.16
2023-02-27T00:22:53.391Z,-3.18
2023-02-27T00:23:53.355Z,-3.21
2023-02-27T00:24:53.312Z,-3.21
2023-02-27T00:25:53.301Z,-3.20
2023-02-27T00:26:53.310Z,-3.21
2023-02-27T00:27:53.308Z,-3.21
2023-02-27T00:28:53.300Z,-3.24
2023-02-27T00:29:53.261Z,-3.24
2023-02-27T00:30:53.324Z,-3.23
2023-02-27T00:31:53.444Z,-3.24
2023-02-27T00:32:53.236Z,-3.24
2023-02-27T00:33:53.255Z,-3.24
2023-02-27T00:34:53.226Z,-3.24
2023-02-27T00:35:53.197Z,-3.24
2023-02-27T00:36:53.225Z,-3.26
2023-02-27T00:37:53.195Z,-3.26
2023-02-27T00:38:53.172Z,-3.26
2023-02-27T00:39:53.187Z,-3.26
2023-02-27T00:40:53.190Z,-3.26
2023-02-27T00:41:53.142Z,-3.24
2023-02-27T00:42:53.193Z,-3.21
2023-02-27T00:43:53.120Z,-3.24
2023-02-27T00:44:53.114Z,-3.21
2023-02-27T00:45:53.147Z,-3.21
2023-02-27T00:46:53.188Z,-3.21
2023-02-27T00:47:53.127Z,-3.21
2023-02-27T00:48:53.076Z,-3.23
2023-02-27T00:49:53.094Z,-3.20
2023-02-27T00:50:53.046Z,-3.18
2023-02-27T00:51:53.045Z,-3.16
2023-02-27T00:52:53.062Z,-3.16
2023-02-27T00:53:53.069Z,-3.15
2023-02-27T00:54:53.024Z,-3.18
2023-02-27T00:55:53.019Z,-3.16
2023-02-27T00:56:52.999Z,-3.16
2023-02-27T00:57:53.041Z,-3.20
2023-02-27T00:58:52.983Z,-3.16
2023-02-27T00:59:52.981Z,-3.16
2023-02-27T01:00:52.984Z,-3.18
2023-02-27T01:01:52.980Z,-3.15
2023-02-27T01:02:53.105Z,-3.15
2023-02-27T01:03:52.976Z,-3.12
2023-02-27T01:04:52.912Z,-3.12
2023-02-27T01:05:52.918Z,-3.10
2023-02-27T01:06:52.903Z,-3.12
2023-02-27T01:07:52.884Z,-3.12
2023-02-27T01:08:52.870Z,-3.10
2023-02-27T01:09:52.891Z,-3.09
2023-02-27T01:10:52.854Z,-3.09
2023-02-27T01:11:52.877Z,-3.09
2023-02-27T01:12:52.841Z,-3.09
2023-02-27T01:13:52.891Z,-3.08
2023-02-27T01:14:52.867Z,-3.06
2023-02-27T01:15:52.835Z,-3.05
2023-02-27T01:16:52.811Z,-3.06
2023-02-27T01:17:52.813Z,-3.06
2023-02-27T01:18:52.788Z,-3.05
2023-02-27T01:19:52.772Z,-3.06
2023-02-27T01:20:52.794Z,-3.08
2023-02-27T01:21:52.798Z,-3.09
2023-02-27T01:22:52.740Z,-3.09
2023-02-27T01:23:52.738Z,-3.08
2023-02-27T01:24:52.723Z,-3.09
2023-02-27T01:25:52.754Z,-3.05
2023-02-27T01:26:52.713Z,-3.06
2023-02-27T01:27:52.726Z,-3.08
2023-02-27T01:28:52.682Z,-3.08
2023-02-27T01:29:52.683Z,-3.10
2023-02-27T01:30:52.672Z,-3.10
2023-02-27T01:31:52.888Z,-3.09
2023-02-27T01:32:52.644Z,-3.09
2023-02-27T01:33:52.628Z,-3.08
2023-02-27T01:34:52.657Z,-3.06
2023-02-27T01:35:52.623Z,-3.06
2023-02-27T01:36:52.603Z,-3.08
2023-02-27T01:37:52.629Z,-3.09
2023-02-27T01:38:52.590Z,-3.08
2023-02-27T01:39:52.626Z,-3.08
2023-02-27T01:40:52.572Z,-3.06
2023-02-27T01:41:52.560Z,-3.05
2023-02-27T01:42:52.560Z,-3.06
2023-02-27T01:43:52.577Z,-3.05
2023-02-27T01:44:52.574Z,-3.06
2023-02-27T01:45:52.560Z,-3.06
2023-02-27T01:46:52.524Z,-3.06
2023-02-27T01:47:52.486Z,-3.06
2023-02-27T01:48:52.537Z,-3.08
2023-02-27T01:49:52.486Z,-3.08
2023-02-27T01:50:52.488Z,-3.09
2023-02-27T01:52:00.017Z,-3.06
2023-02-27T01:52:52.443Z,-3.09
2023-02-27T01:53:52.433Z,-3.08
2023-02-27T01:54:52.441Z,-3.08
2023-02-27T01:55:52.410Z,-3.08
2023-02-27T01:56:52.435Z,-3.08
2023-02-27T01:57:52.390Z,-3.06
2023-02-27T01:58:52.435Z,-3.08
2023-02-27T01:59:52.447Z,-3.09
2023-02-27T02:00:52.435Z,-3.08
2023-02-27T02:01:52.351Z,-3.06
2023-02-27T02:02:52.350Z,-3.08
2023-02-27T02:03:52.333Z,-3.08
2023-02-27T02:04:52.337Z,-3.08
2023-02-27T02:05:52.348Z,-3.09
2023-02-27T02:06:52.332Z,-3.08
2023-02-27T02:07:52.329Z,-3.09
2023-02-27T02:08:52.289Z,-3.10
2023-02-27T02:09:52.299Z,-3.12
2023-02-27T02:10:52.262Z,-3.10
2023-02-27T02:11:52.251Z,-3.09
2023-02-27T02:12:52.252Z,-3.08
2023-02-27T02:13:52.262Z,-3.13
2023-02-27T02:14:52.232Z,-3.10
2023-02-27T02:15:52.236Z,-3.10
2023-02-27T02:16:52.277Z,-3.09
2023-02-27T02:17:52.225Z,-3.10
2023-02-27T02:18:52.237Z,-3.09
2023-02-27T02:19:52.237Z,-3.09
2023-02-27T02:20:52.191Z,-3.10
2023-02-27T02:21:52.146Z,-3.10
2023-02-27T02:22:52.165Z,-3.09
2023-02-27T02:23:52.136Z,-3.09
2023-02-27T02:24:52.126Z,-3.09
2023-02-27T02:25:52.181Z,-3.09
2023-02-27T02:26:52.103Z,-3.08
2023-02-27T02:27:52.626Z,-3.09
2023-02-27T02:28:52.089Z,-3.12
2023-02-27T02:29:52.090Z,-3.12
2023-02-27T02:30:52.135Z,-3.15
2023-02-27T02:31:52.284Z,-3.12
2023-02-27T02:32:52.076Z,-3.16
2023-02-27T02:33:52.051Z,-3.18
2023-02-27T02:34:52.058Z,-3.21
2023-02-27T02:35:52.022Z,-3.18
2023-02-27T02:36:52.003Z,-3.15
2023-02-27T02:37:52.013Z,-3.16
2023-02-27T02:38:51.984Z,-3.16
2023-02-27T02:39:52.021Z,-3.18
2023-02-27T02:40:51.972Z,-3.18
2023-02-27T02:41:51.956Z,-3.18
2023-02-27T02:42:53.342Z,-3.16
2023-02-27T02:43:51.980Z,-3.16
2023-02-27T02:44:51.979Z,-3.15
2023-02-27T02:45:51.960Z,-3.13
2023-02-27T02:46:51.915Z,-3.15
2023-02-27T02:47:51.919Z,-3.13
2023-02-27T02:48:51.888Z,-3.15
2023-02-27T02:49:51.881Z,-3.13
2023-02-27T02:50:51.898Z,-3.13
2023-02-27T02:51:51.889Z,-3.13
2023-02-27T02:52:51.884Z,-3.15
2023-02-27T02:53:51.834Z,-3.13
2023-02-27T02:54:51.837Z,-3.12
2023-02-27T02:55:51.813Z,-3.15
2023-02-27T02:56:51.851Z,-3.16
2023-02-27T02:57:51.857Z,-3.16
2023-02-27T02:58:51.793Z,-3.15
2023-02-27T02:59:52.610Z,-3.16
2023-02-27T03:00:51.777Z,-3.15
2023-02-27T03:01:51.807Z,-3.15
2023-02-27T03:02:51.758Z,-3.15
2023-02-27T03:03:51.795Z,-3.15
2023-02-27T03:04:51.730Z,-3.16
2023-02-27T03:05:51.771Z,-3.18
2023-02-27T03:06:51.714Z,-3.18
2023-02-27T03:07:51.781Z,-3.18
2023-02-27T03:08:51.718Z,-3.20
2023-02-27T03:09:51.739Z,-3.16
2023-02-27T03:10:51.675Z,-3.16
2023-02-27T03:11:51.660Z,-3.18
2023-02-27T03:12:51.667Z,-3.16
2023-02-27T03:13:51.671Z,-3.16
2023-02-27T03:14:51.654Z,-3.21
2023-02-27T03:15:51.696Z,-3.18
2023-02-27T03:16:51.643Z,-3.16
2023-02-27T03:17:51.606Z,-3.16
2023-02-27T03:18:51.594Z,-3.15
2023-02-27T03:19:52.132Z,-3.16
2023-02-27T03:20:51.610Z,-3.15
2023-02-27T03:21:51.556Z,-3.15
2023-02-27T03:22:51.573Z,-3.15
2023-02-27T03:23:51.531Z,-3.16
2023-02-27T03:24:51.537Z,-3.16
2023-02-27T03:25:51.566Z,-3.15
2023-02-27T03:26:51.512Z,-3.16
2023-02-27T03:27:51.499Z,-3.16
2023-02-27T03:28:51.518Z,-3.18
2023-02-27T03:29:51.497Z,-3.20
2023-02-27T03:30:51.664Z,-3.20
2023-02-27T03:31:51.616Z,-3.18
2023-02-27T03:32:51.487Z,-3.20
2023-02-27T03:33:51.448Z,-3.20
2023-02-27T03:34:51.431Z,-3.20
2023-02-27T03:35:51.459Z,-3.18
2023-02-27T03:36:51.401Z,-3.18
2023-02-27T03:37:51.419Z,-3.18
2023-02-27T03:38:51.446Z,-3.16
2023-02-27T03:39:51.396Z,-3.16
2023-02-27T03:40:51.393Z,-3.13
2023-02-27T03:41:51.358Z,-3.13
2023-02-27T03:42:51.375Z,-3.13
2023-02-27T03:43:51.343Z,-3.16
2023-02-27T03:44:52.463Z,-3.16
2023-02-27T03:45:51.326Z,-3.15
2023-02-27T03:46:51.311Z,-3.13
2023-02-27T03:47:51.310Z,-3.12
2023-02-27T03:48:51.298Z,-3.10
2023-02-27T03:49:51.289Z,-3.12
2023-02-27T03:50:51.313Z,-3.10
2023-02-27T03:51:51.348Z,-3.12
2023-02-27T03:52:51.252Z,-3.10
2023-02-27T03:53:51.240Z,-3.12
2023-02-27T03:54:51.231Z,-3.12
2023-02-27T03:55:51.314Z,-3.10
2023-02-27T03:56:51.242Z,-3.10
2023-02-27T03:57:51.214Z,-3.10
2023-02-27T03:58:51.192Z,-3.12
2023-02-27T03:59:51.184Z,-3.12
2023-02-27T04:00:51.199Z,-3.10
2023-02-27T04:01:56.147Z,-3.12
2023-02-27T04:02:51.202Z,-3.12
2023-02-27T04:03:51.142Z,-3.10
2023-02-27T04:04:51.161Z,-3.10
2023-02-27T04:05:51.133Z,-3.12
2023-02-27T04:06:51.255Z,-3.09
2023-02-27T04:07:51.159Z,-3.10
2023-02-27T04:08:51.100Z,-3.13
2023-02-27T04:09:51.089Z,-3.12
2023-02-27T04:10:51.073Z,-3.12
2023-02-27T04:11:51.080Z,-3.12
2023-02-27T04:12:51.057Z,-3.12
2023-02-27T04:13:51.070Z,-3.12
2023-02-27T04:14:51.041Z,-3.10
2023-02-27T04:15:51.088Z,-3.12
2023-02-27T04:16:51.048Z,-3.10
2023-02-27T04:17:51.028Z,-3.10
2023-02-27T04:18:51.023Z,-3.12
2023-02-27T04:19:50.978Z,-3.10
2023-02-27T04:20:50.983Z,-3.12
2023-02-27T04:21:50.966Z,-3.12
2023-02-27T04:22:50.977Z,-3.12
2023-02-27T04:23:50.968Z,-3.10
2023-02-27T04:24:50.970Z,-3.08
2023-02-27T04:25:50.965Z,-3.09
2023-02-27T04:26:50.914Z,-3.09
2023-02-27T04:27:50.913Z,-3.10
2023-02-27T04:28:50.897Z,-3.13
2023-02-27T04:29:50.881Z,-3.10
2023-02-27T04:30:50.904Z,-3.10
2023-02-27T04:31:51.096Z,-3.13
2023-02-27T04:32:50.907Z,-3.13
2023-02-27T04:33:50.855Z,-3.10
2023-02-27T04:34:50.868Z,-3.13
2023-02-27T04:35:50.849Z,-3.15
2023-02-27T04:36:50.859Z,-3.13
2023-02-27T04:37:50.830Z,-3.15
2023-02-27T04:38:50.807Z,-3.13
2023-02-27T04:39:50.825Z,-3.16
2023-02-27T04:40:50.796Z,-3.13
2023-02-27T04:41:50.802Z,-3.15
2023-02-27T04:42:50.769Z,-3.15
2023-02-27T04:43:50.821Z,-3.15
2023-02-27T04:44:50.738Z,-3.15
2023-02-27T04:45:50.797Z,-3.13
2023-02-27T04:46:50.717Z,-3.16
2023-02-27T04:47:50.719Z,-3.15
2023-02-27T04:48:50.712Z,-3.15
2023-02-27T04:49:50.728Z,-3.13
2023-02-27T04:50:50.673Z,-3.16
2023-02-27T04:51:50.741Z,-3.13
2023-02-27T04:52:50.689Z,-3.10
2023-02-27T04:53:50.658Z,-3.13
2023-02-27T04:54:50.652Z,-3.15
2023-02-27T04:55:50.692Z,-3.13
2023-02-27T04:56:50.625Z,-3.15
2023-02-27T04:57:50.624Z,-3.13
2023-02-27T04:58:50.627Z,-3.12
2023-02-27T04:59:50.629Z,-3.10
2023-02-27T05:00:50.648Z,-3.10
2023-02-27T05:01:50.694Z,-3.12
2023-02-27T05:02:50.647Z,-3.12
2023-02-27T05:03:50.561Z,-3.12
2023-02-27T05:04:50.542Z,-3.12
2023-02-27T05:05:50.584Z,-3.12
2023-02-27T05:06:50.542Z,-3.13
2023-02-27T05:07:50.527Z,-3.12
2023-02-27T05:08:50.505Z,-3.12
2023-02-27T05:09:50.519Z,-3.10
2023-02-27T05:10:50.507Z,-3.10
2023-02-27T05:11:50.497Z,-3.09
2023-02-27T05:12:50.473Z,-3.10
2023-02-27T05:13:50.496Z,-3.10
2023-02-27T05:14:50.448Z,-3.08
2023-02-27T05:15:50.519Z,-3.09
2023-02-27T05:16:50.478Z,-3.09
2023-02-27T05:17:50.454Z,-3.09
2023-02-27T05:18:50.412Z,-3.08
2023-02-27T05:19:50.406Z,-3.08
2023-02-27T05:20:50.419Z,-3.09
2023-02-27T05:21:50.409Z,-3.10
2023-02-27T05:22:50.363Z,-3.09
2023-02-27T05:23:50.415Z,-3.12
2023-02-27T05:24:50.414Z,-3.06
2023-02-27T05:25:50.347Z,-3.10
2023-02-27T05:26:50.392Z,-3.10
2023-02-27T05:27:50.391Z,-3.13
2023-02-27T05:28:50.309Z,-3.13
2023-02-27T05:29:50.306Z,-3.12
2023-02-27T05:30:50.291Z,-3.12
2023-02-27T05:31:50.530Z,-3.13
2023-02-27T05:32:50.316Z,-3.10
2023-02-27T05:33:50.286Z,-3.12
2023-02-27T05:34:50.257Z,-3.12
2023-02-27T05:35:50.325Z,-3.10
2023-02-27T05:36:50.257Z,-3.12
2023-02-27T05:37:50.270Z,-3.12
2023-02-27T05:38:50.219Z,-3.15
2023-02-27T05:39:50.243Z,-3.16
2023-02-27T05:40:50.247Z,-3.18
2023-02-27T05:41:50.173Z,-3.13
2023-02-27T05:42:50.171Z,-3.13
2023-02-27T05:43:50.179Z,-3.15
2023-02-27T05:44:50.144Z,-3.16
2023-02-27T05:45:50.222Z,-3.15
2023-02-27T05:46:50.155Z,-3.16
2023-02-27T05:47:50.113Z,-3.18
2023-02-27T05:48:50.108Z,-3.18
2023-02-27T05:49:50.103Z,-3.18
2023-02-27T05:50:50.088Z,-3.18
2023-02-27T05:51:50.130Z,-3.16
2023-02-27T05:52:50.082Z,-3.20
2023-02-27T05:53:50.067Z,-3.18
2023-02-27T05:54:50.111Z,-3.21
2023-02-27T05:55:50.042Z,-3.21
2023-02-27T05:56:50.053Z,-3.18
2023-02-27T05:57:50.019Z,-3.20
2023-02-27T05:58:50.035Z,-3.20
2023-02-27T05:59:50.022Z,-3.20
2023-02-27T06:00:50.001Z,-3.16
2023-02-27T06:01:49.995Z,-3.18
2023-02-27T06:02:50.009Z,-3.20
2023-02-27T06:03:49.960Z,-3.18
2023-02-27T06:04:49.999Z,-3.18
2023-02-27T06:05:49.989Z,-3.20
2023-02-27T06:06:49.927Z,-3.18
2023-02-27T06:07:49.929Z,-3.18
2023-02-27T06:08:49.968Z,-3.18
2023-02-27T06:09:49.912Z,-3.18
2023-02-27T06:10:49.905Z,-3.16
2023-02-27T06:11:49.882Z,-3.18
2023-02-27T06:12:49.870Z,-3.18
2023-02-27T06:13:49.875Z,-3.18
2023-02-27T06:14:49.878Z,-3.18
2023-02-27T06:15:49.860Z,-3.13
2023-02-27T06:16:49.920Z,-3.15
2023-02-27T06:17:49.832Z,-3.15
2023-02-27T06:18:49.846Z,-3.13
2023-02-27T06:19:49.845Z,-3.10
2023-02-27T06:20:49.810Z,-3.09
2023-02-27T06:21:49.794Z,-3.12
2023-02-27T06:22:49.779Z,-3.09
2023-02-27T06:23:49.796Z,-3.09
2023-02-27T06:24:49.790Z,-3.09
2023-02-27T06:25:49.750Z,-3.12
2023-02-27T06:26:49.733Z,-3.10
2023-02-27T06:27:49.722Z,-3.06
2023-02-27T06:28:49.704Z,-3.06
2023-02-27T06:29:49.701Z,-3.02
2023-02-27T06:30:49.735Z,-3.05
2023-02-27T06:31:49.733Z,-3.02
2023-02-27T06:32:49.711Z,-3.02
2023-02-27T06:33:49.674Z,-3.02
2023-02-27T06:34:49.658Z,-3.05
2023-02-27T06:35:49.696Z,-3.03
2023-02-27T06:36:49.633Z,-3.03
2023-02-27T06:37:49.629Z,-3.02
2023-02-27T06:38:49.620Z,-3.01
2023-02-27T06:39:49.632Z,-2.97
2023-02-27T06:40:49.588Z,-3.01
2023-02-27T06:41:49.648Z,-2.95
2023-02-27T06:42:49.565Z,-2.97
2023-02-27T06:43:49.575Z,-2.95
2023-02-27T06:44:49.571Z,-2.95
2023-02-27T06:45:49.597Z,-2.97
2023-02-27T06:46:49.572Z,-2.95
2023-02-27T06:47:49.557Z,-2.92
2023-02-27T06:48:49.504Z,-2.88
2023-02-27T06:49:49.504Z,-2.90
2023-02-27T06:50:49.508Z,-2.94
2023-02-27T06:51:49.606Z,-2.92
2023-02-27T06:52:56.975Z,-2.91
2023-02-27T06:53:49.464Z,-2.95
2023-02-27T06:54:49.460Z,-2.94
2023-02-27T06:55:49.446Z,-2.88
2023-02-27T06:56:49.461Z,-2.87
2023-02-27T06:57:49.491Z,-2.85
2023-02-27T06:58:49.437Z,-2.88
2023-02-27T06:59:49.440Z,-2.84
2023-02-27T07:00:49.399Z,-2.82
2023-02-27T07:01:49.421Z,-2.85
2023-02-27T07:02:49.402Z,-2.88
2023-02-27T07:03:49.384Z,-2.88
2023-02-27T07:04:49.404Z,-2.85
2023-02-27T07:05:49.338Z,-2.80
2023-02-27T07:07:34.500Z,-2.79
2023-02-27T07:07:50.357Z,-2.77
2023-02-27T07:09:01.767Z,-2.73
2023-02-27T07:09:50.304Z,-2.74
2023-02-27T07:10:49.334Z,-2.80
2023-02-27T07:11:49.337Z,-2.76
2023-02-27T07:12:49.274Z,-2.76
2023-02-27T07:13:49.267Z,-2.73
2023-02-27T07:14:49.259Z,-2.80
2023-02-27T07:15:49.324Z,-2.82
2023-02-27T07:16:49.335Z,-2.74
2023-02-27T07:17:49.266Z,-2.67
2023-02-27T07:18:49.237Z,-2.67
2023-02-27T07:19:49.280Z,-2.69
2023-02-27T07:20:49.219Z,-2.66
2023-02-27T07:21:49.250Z,-2.66
2023-02-27T07:22:49.224Z,-2.58
2023-02-27T07:23:49.161Z,-2.67
2023-02-27T07:24:49.287Z,-2.72
2023-02-27T07:25:49.194Z,-2.73
2023-02-27T07:26:49.289Z,-2.76
2023-02-27T07:27:49.178Z,-2.74
2023-02-27T07:28:49.254Z,-2.72
2023-02-27T07:29:49.143Z,-2.74
2023-02-27T07:30:49.137Z,-2.70
2023-02-27T07:31:49.281Z,-2.66
2023-02-27T07:32:49.093Z,-2.63
2023-02-27T07:33:49.070Z,-2.66
2023-02-27T07:34:49.065Z,-2.67
2023-02-27T07:35:49.144Z,-2.63
2023-02-27T07:36:49.034Z,-2.58
2023-02-27T07:37:49.088Z,-2.59
2023-02-27T07:38:49.022Z,-2.61
2023-02-27T07:39:49.135Z,-2.63
2023-02-27T07:40:49.002Z,-2.66
2023-02-27T07:41:49.032Z,-2.64
2023-02-27T07:42:48.969Z,-2.59
2023-02-27T07:43:49.003Z,-2.56
2023-02-27T07:44:48.974Z,-2.66
2023-02-27T07:45:48.973Z,-2.64
2023-02-27T07:46:49.102Z,-2.64
2023-02-27T07:47:48.962Z,-2.67
2023-02-27T07:48:48.961Z,-2.63
2023-02-27T07:49:49.650Z,-2.66
2023-02-27T07:50:48.904Z,-2.67
2023-02-27T07:51:48.905Z,-2.69
2023-02-27T07:52:48.902Z,-2.64
2023-02-27T07:53:48.873Z,-2.64
2023-02-27T07:54:48.977Z,-2.61
2023-02-27T07:55:48.860Z,-2.61
2023-02-27T07:56:48.869Z,-2.66
2023-02-27T07:57:48.842Z,-2.64
2023-02-27T07:58:48.967Z,-2.61
2023-02-27T07:59:48.838Z,-2.66
2023-02-27T08:00:48.825Z,-2.64
2023-02-27T08:01:48.811Z,-2.61
2023-02-27T08:02:48.952Z,-2.56
2023-02-27T08:03:48.909Z,-2.59
2023-02-27T08:04:48.825Z,-2.63
2023-02-27T08:05:48.747Z,-2.61
2023-02-27T08:06:48.738Z,-2.72
2023-02-27T08:07:49.207Z,-2.66
2023-02-27T08:08:48.718Z,-2.55
2023-02-27T08:09:48.718Z,-2.56
2023-02-27T08:10:48.725Z,-2.55
2023-02-27T08:11:49.346Z,-2.54
2023-02-27T08:12:48.686Z,-2.51
2023-02-27T08:13:59.962Z,-2.48
2023-02-27T08:14:50.038Z,-2.49
2023-02-27T08:15:48.678Z,-2.51
2023-02-27T08:16:48.670Z,-2.52
2023-02-27T08:17:48.652Z,-2.48
2023-02-27T08:18:48.645Z,-2.40
2023-02-27T08:19:48.616Z,-2.58
2023-02-27T08:20:48.700Z,-2.54
2023-02-27T08:21:48.640Z,-2.63
2023-02-27T08:22:48.592Z,-2.66
2023-02-27T08:23:48.648Z,-2.56
2023-02-27T08:24:48.609Z,-2.49
2023-02-27T08:25:48.597Z,-2.51
2023-02-27T08:26:48.559Z,-2.46
2023-02-27T08:27:48.602Z,-2.46
2023-02-27T08:28:48.574Z,-2.55
2023-02-27T08:29:48.547Z,-2.56
2023-02-27T08:30:48.588Z,-2.52
2023-02-27T08:31:53.282Z,-2.34
2023-02-27T08:32:48.480Z,-2.33
2023-02-27T08:33:55.285Z,-2.27
2023-02-27T08:34:49.485Z,-2.30
2023-02-27T08:35:48.497Z,-2.34
2023-02-27T08:36:48.468Z,-2.27
2023-02-27T08:37:48.464Z,-2.34
2023-02-27T08:38:48.435Z,-2.27
2023-02-27T08:39:48.532Z,-2.38
2023-02-27T08:40:48.406Z,-2.22
2023-02-27T08:41:48.406Z,-2.26
2023-02-27T08:42:48.417Z,-2.27
2023-02-27T08:43:48.366Z,-2.33
2023-02-27T08:44:48.390Z,-2.41
2023-02-27T08:45:48.405Z,-2.38
2023-02-27T08:46:48.347Z,-2.33
2023-02-27T08:47:48.357Z,-2.30
2023-02-27T08:48:48.341Z,-2.21
2023-02-27T08:49:48.332Z,-2.09
2023-02-27T08:50:48.316Z,-2.06
2023-02-27T08:51:48.298Z,-1.97
2023-02-27T08:52:48.276Z,-1.98
2023-02-27T08:53:48.262Z,-2.03
2023-02-27T08:54:48.280Z,-1.97
2023-02-27T08:55:48.261Z,-2.04
2023-02-27T08:56:48.240Z,-2.04
2023-02-27T08:57:48.318Z,-1.96
2023-02-27T08:58:48.258Z,-2.04
2023-02-27T08:59:48.307Z,-1.98
2023-02-27T09:00:48.323Z,-2.03
2023-02-27T09:01:48.203Z,-2.06
2023-02-27T09:02:48.258Z,-2.00
2023-02-27T09:03:48.229Z,-2.04
2023-02-27T09:04:48.161Z,-2.16
2023-02-27T09:05:48.236Z,-2.14
2023-02-27T09:06:48.140Z,-2.03
2023-02-27T09:07:48.160Z,-2.08
2023-02-27T09:08:48.128Z,-2.18
2023-02-27T09:09:50.023Z,-2.12
2023-02-27T09:10:48.103Z,-2.03
2023-02-27T09:11:48.199Z,-1.91
2023-02-27T09:12:48.074Z,-2.03
2023-02-27T09:13:48.069Z,-2.08
2023-02-27T09:14:48.111Z,-1.96
2023-02-27T09:15:48.084Z,-1.86
2023-02-27T09:16:48.099Z,-1.85
2023-02-27T09:17:48.044Z,-2.03
2023-02-27T09:18:48.031Z,-2.03
2023-02-27T09:19:48.066Z,-2.24
2023-02-27T09:20:48.005Z,-2.15
2023-02-27T09:21:48.045Z,-2.06
2023-02-27T09:22:47.979Z,-2.12
2023-02-27T09:23:47.982Z,-1.91
2023-02-27T09:24:47.982Z,-1.75
2023-02-27T09:25:47.982Z,-1.80
2023-02-27T09:26:48.487Z,-1.91
2023-02-27T09:27:47.984Z,-1.97
2023-02-27T09:28:47.982Z,-2.01
2023-02-27T09:29:47.941Z,-1.94
2023-02-27T09:30:47.899Z,-1.90
2023-02-27T09:31:52.875Z,-1.83
2023-02-27T09:32:47.937Z,-1.72
2023-02-27T09:33:47.995Z,-1.80
2023-02-27T09:34:47.894Z,-1.85
2023-02-27T09:35:47.995Z,-1.67
2023-02-27T09:36:47.874Z,-1.79
2023-02-27T09:37:47.870Z,-1.75
2023-02-27T09:38:47.856Z,-1.69
2023-02-27T09:39:47.813Z,-1.80
2023-02-27T09:40:47.798Z,-1.70
2023-02-27T09:41:47.825Z,-1.73
2023-02-27T09:42:47.804Z,-1.67
2023-02-27T09:43:47.975Z,-1.69
2023-02-27T09:44:47.870Z,-1.61
2023-02-27T09:45:47.776Z,-1.57
2023-02-27T09:46:47.743Z,-1.72
2023-02-27T09:47:47.726Z,-1.64
2023-02-27T09:48:47.716Z,-1.62
2023-02-27T09:49:47.732Z,-1.47
2023-02-27T09:50:47.692Z,-1.39
2023-02-27T09:51:47.732Z,-1.33
2023-02-27T09:52:47.694Z,-1.16
2023-02-27T09:53:47.670Z,-0.95
2023-02-27T09:54:47.710Z,-0.89
2023-02-27T09:55:47.664Z,-1.18
2023-02-27T09:56:47.667Z,-1.26
2023-02-27T09:57:47.632Z,-1.25
2023-02-27T09:58:47.628Z,-1.05
2023-02-27T09:59:47.660Z,-1.16
2023-02-27T10:00:47.609Z,-1.11
2023-02-27T10:01:47.587Z,-1.03
2023-02-27T10:02:47.592Z,-0.92
2023-02-27T10:03:47.576Z,-0.95
2023-02-27T10:04:47.603Z,-0.86
2023-02-27T10:05:47.571Z,-0.82
2023-02-27T10:06:47.557Z,-0.92
2023-02-27T10:07:47.570Z,-0.92
2023-02-27T10:08:47.541Z,-0.95
2023-02-27T10:09:47.580Z,-0.86
2023-02-27T10:10:47.549Z,-1.00
2023-02-27T10:11:47.504Z,-1.07
2023-02-27T10:12:47.499Z,-1.01
2023-02-27T10:13:47.471Z,-0.82
2023-02-27T10:14:47.567Z,-0.64
2023-02-27T10:15:47.560Z,-0.84
2023-02-27T10:16:47.581Z,-0.63
2023-02-27T10:17:47.426Z,-0.63
2023-02-27T10:18:47.428Z,-0.50
2023-02-27T10:19:47.442Z,-0.63
2023-02-27T10:20:47.446Z,-0.67
2023-02-27T10:21:47.401Z,-0.58
2023-02-27T10:22:47.394Z,-0.68
2023-02-27T10:23:47.372Z,-0.66
2023-02-27T10:24:47.427Z,-0.57
2023-02-27T10:25:47.344Z,-0.71
2023-02-27T10:26:47.383Z,-0.57
2023-02-27T10:27:47.371Z,-0.76
2023-02-27T10:28:47.336Z,-0.81
2023-02-27T10:29:47.307Z,-0.92
2023-02-27T10:30:47.347Z,-0.61
2023-02-27T10:31:47.364Z,-0.57
2023-02-27T10:32:47.706Z,-0.61
2023-02-27T10:33:47.284Z,-0.35
2023-02-27T10:34:47.283Z,-0.55
2023-02-27T10:35:47.295Z,-0.52
2023-02-27T10:36:47.324Z,-0.46
2023-02-27T10:37:47.236Z,-0.40
2023-02-27T10:38:47.274Z,-0.57
2023-02-27T10:39:47.210Z,-0.38
2023-02-27T10:40:47.200Z,-0.39
2023-02-27T10:41:47.191Z,-0.29
2023-02-27T10:42:48.167Z,-0.24
2023-02-27T10:43:47.168Z,-0.60
2023-02-27T10:44:47.204Z,-0.78
2023-02-27T10:45:47.190Z,-0.61
2023-02-27T10:46:47.165Z,-0.68
2023-02-27T10:47:47.139Z,-0.66
2023-02-27T10:48:47.110Z,-0.76
2023-02-27T10:49:47.131Z,-0.60
2023-02-27T10:50:47.106Z,-0.71
2023-02-27T10:51:47.151Z,-0.58
2023-02-27T10:52:47.072Z,-0.61
2023-02-27T10:53:47.074Z,-0.85
2023-02-27T10:54:47.137Z,-0.73
2023-02-27T10:55:47.143Z,-0.55
2023-02-27T10:56:47.052Z,-0.32
2023-02-27T10:57:47.045Z,-0.27
2023-02-27T10:58:47.092Z,-0.04
2023-02-27T10:59:47.068Z,0.14
2023-02-27T11:00:47.002Z,0.09
2023-02-27T11:01:47.030Z,0.14
2023-02-27T11:02:46.964Z,0.08
2023-02-27T11:03:46.970Z,-0.21
2023-02-27T11:04:46.978Z,-0.22
2023-02-27T11:05:46.964Z,-0.40
2023-02-27T11:06:46.972Z,-0.27
2023-02-27T11:07:46.925Z,-0.43
2023-02-27T11:08:48.477Z,-0.55
2023-02-27T11:09:46.935Z,-0.53
2023-02-27T11:10:46.907Z,-0.63
2023-02-27T11:11:46.888Z,-0.53
2023-02-27T11:12:46.901Z,-0.84
2023-02-27T11:13:46.898Z,-0.79
2023-02-27T11:14:46.959Z,-0.67
2023-02-27T11:15:46.979Z,-0.75
2023-02-27T11:16:46.849Z,-0.81
2023-02-27T11:17:46.854Z,-0.98
2023-02-27T11:18:46.825Z,-1.07
2023-02-27T11:19:46.809Z,-1.01
2023-02-27T11:20:46.791Z,-0.90
2023-02-27T11:21:46.772Z,-0.78
2023-02-27T11:22:46.781Z,-0.79
2023-02-27T11:23:46.777Z,-0.90
2023-02-27T11:24:46.746Z,-0.79
2023-02-27T11:25:46.878Z,-1.05
2023-02-27T11:26:46.778Z,-1.34
2023-02-27T11:27:46.859Z,-1.31
2023-02-27T11:28:46.707Z,-1.54
2023-02-27T11:29:46.695Z,-1.57
2023-02-27T11:30:46.839Z,-1.54
2023-02-27T11:31:46.779Z,-1.26
2023-02-27T11:32:46.776Z,-0.97
2023-02-27T11:33:46.667Z,-0.57
2023-02-27T11:34:46.635Z,-0.43
2023-02-27T11:35:46.700Z,-0.24
2023-02-27T11:36:46.716Z,-0.25
2023-02-27T11:37:46.673Z,0.05
2023-02-27T11:38:46.625Z,0.29
2023-02-27T11:39:46.597Z,0.29
2023-02-27T11:40:46.601Z,0.56
2023-02-27T11:41:46.596Z,0.55
2023-02-27T11:42:46.661Z,0.12
2023-02-27T11:43:46.556Z,-0.28
2023-02-27T11:44:50.760Z,-0.29
2023-02-27T11:46:04.262Z,-0.20
2023-02-27T11:46:48.744Z,-0.10
2023-02-27T11:47:46.579Z,-0.04
2023-02-27T11:48:46.600Z,0.25
2023-02-27T11:49:46.507Z,0.08
2023-02-27T11:50:46.484Z,-0.32
2023-02-27T11:51:46.510Z,-0.46
2023-02-27T11:52:46.521Z,-0.27
2023-02-27T11:53:53.569Z,-0.17
2023-02-27T11:54:46.445Z,-0.24
2023-02-27T11:55:46.483Z,-0.10
2023-02-27T11:56:46.412Z,0.05
2023-02-27T11:57:46.403Z,0.22
2023-02-27T11:58:46.400Z,0.22
2023-02-27T11:59:46.465Z,0.20
2023-02-27T12:00:46.398Z,0.17
2023-02-27T12:01:46.367Z,0.11
2023-02-27T12:02:46.410Z,-0.04
2023-02-27T12:03:46.474Z,0.12
2023-02-27T12:04:46.530Z,0.05
2023-02-27T12:05:46.469Z,0.02
2023-02-27T12:06:46.374Z,0.07
2023-02-27T12:07:46.337Z,0.12
2023-02-27T12:08:46.298Z,0.15
2023-02-27T12:09:46.281Z,0.02
2023-02-27T12:10:46.389Z,-0.22
2023-02-27T12:11:46.324Z,-0.22
2023-02-27T12:12:46.292Z,0.09
2023-02-27T12:13:46.306Z,0.12
2023-02-27T12:14:46.383Z,0.35
2023-02-27T12:15:46.283Z,0.41
2023-02-27T12:16:46.291Z,0.50
2023-02-27T12:17:46.199Z,0.35
2023-02-27T12:18:46.256Z,-0.10
2023-02-27T12:19:46.208Z,-0.07
2023-02-27T12:20:46.256Z,-0.10
2023-02-27T12:21:48.397Z,-0.20
2023-02-27T12:22:46.251Z,-0.07
2023-02-27T12:23:46.167Z,-0.16
2023-02-27T12:24:46.196Z,0.05
2023-02-27T12:25:46.115Z,0.41
2023-02-27T12:26:46.139Z,0.12
2023-02-27T12:27:46.158Z,-0.34
2023-02-27T12:28:46.181Z,-0.34
2023-02-27T12:29:46.077Z,-0.45
2023-02-27T12:30:46.097Z,-0.17
2023-02-27T12:31:46.203Z,0.09
2023-02-27T12:32:46.114Z,0.35
2023-02-27T12:33:46.044Z,0.53
2023-02-27T12:34:46.041Z,0.43
2023-02-27T12:35:46.130Z,0.33
2023-02-27T12:36:46.016Z,0.02
2023-02-27T12:37:46.049Z,-0.01
2023-02-27T12:38:46.215Z,0.09
2023-02-27T12:39:46.023Z,0.25
2023-02-27T12:40:45.972Z,0.12
2023-02-27T12:41:45.990Z,-0.09
2023-02-27T12:42:46.046Z,0.12
2023-02-27T12:43:45.981Z,0.09
2023-02-27T12:44:45.934Z,0.02
2023-02-27T12:45:45.943Z,0.12
2023-02-27T12:46:45.990Z,0.12
2023-02-27T12:47:46.255Z,-0.14
2023-02-27T12:48:45.882Z,-0.28
2023-02-27T12:49:45.915Z,-0.40
2023-02-27T12:50:45.902Z,-0.22
2023-02-27T12:51:45.878Z,-0.06
2023-02-27T12:52:45.860Z,-0.07
2023-02-27T12:53:45.842Z,-0.29
2023-02-27T12:54:46.711Z,-0.46